Time;durP1;ratioP1;P1;durP2;ratioP2;P2;SDS_P1;SDS_P2;PMS_P1;PMS_P2;Temp;Humidity;BMP_temperature;BMP_pressure;BME280_temperature;BME280_humidity;BME280_pressure;Samples;Min_cycle;Max_cycle;Signal;HPM_P1;HPM_P2
2021/07/17 00:02:17;;;;;;;;;16.00;16.00;;;;;-149.00;100.00;66333.84;5100607;27;45369;-76
2021/07/17 00:04:44;;;;;;;;;16.33;16.33;;;;;-149.00;100.00;66333.84;5081904;27;47214;-76
2021/07/17 00:07:09;;;;;;;;;17.67;15.67;;;;;-149.00;100.00;66333.84;5098772;27;47215;-77
2021/07/17 00:09:35;;;;;;;;;16.00;13.67;;;;;-149.00;100.00;66333.84;5081907;27;45179;-76
2021/07/17 00:12:00;;;;;;;;;17.00;16.67;;;;;-149.00;100.00;66333.84;5100319;27;45219;-76
2021/07/17 00:14:27;;;;;;;;;15.00;15.00;;;;;-149.00;100.00;66333.84;5099793;27;45221;-76
2021/07/17 00:16:52;;;;;;;;;18.00;17.00;;;;;-149.00;100.00;66333.84;5100228;27;46028;-76
2021/07/17 00:19:18;;;;;;;;;17.67;16.33;;;;;-149.00;100.00;66333.84;5100118;27;45339;-77
2021/07/17 00:21:44;;;;;;;;;16.33;16.00;;;;;-149.00;100.00;66333.84;5099919;27;45286;-76
2021/07/17 00:24:09;;;;;;;;;14.33;14.00;;;;;-149.00;100.00;66333.84;5081518;27;46193;-76
2021/07/17 00:26:35;;;;;;;;;18.67;16.67;;;;;-149.00;100.00;66333.84;5099833;27;45378;-76
2021/07/17 00:29:00;;;;;;;;;20.33;18.00;;;;;-149.00;100.00;66333.84;5099871;27;45297;-76
2021/07/17 00:31:25;;;;;;;;;21.00;18.67;;;;;-149.00;100.00;66333.84;5099813;27;45318;-76
2021/07/17 00:33:51;;;;;;;;;21.33;18.67;;;;;-149.00;100.00;66333.84;5100027;27;45562;-77
2021/07/17 00:36:16;;;;;;;;;18.00;17.33;;;;;-149.00;100.00;66333.84;5081479;27;48124;-76
2021/07/17 00:38:41;;;;;;;;;19.67;19.67;;;;;-149.00;100.00;66333.84;5100077;27;45203;-76
2021/07/17 00:41:07;;;;;;;;;19.67;16.00;;;;;-149.00;100.00;66333.84;5100162;27;45280;-76
2021/07/17 00:43:33;;;;;;;;;16.67;16.00;;;;;-149.00;100.00;66333.84;5099565;27;45236;-76
2021/07/17 00:45:58;;;;;;;;;15.67;14.33;;;;;-149.00;100.00;66333.84;5081432;27;47544;-76
2021/07/17 00:48:24;;;;;;;;;20.33;17.67;;;;;-149.00;100.00;66333.84;5099746;27;45221;-76
2021/07/17 00:50:50;;;;;;;;;17.67;16.00;;;;;-149.00;100.00;66333.84;5081567;27;45239;-77
2021/07/17 00:53:15;;;;;;;;;18.33;17.00;;;;;-149.00;100.00;66333.84;5098304;27;45986;-76
2021/07/17 00:55:45;;;;;;;;;19.67;17.33;;;;;-149.00;100.00;66333.84;5081153;27;47212;-76
2021/07/17 00:58:12;;;;;;;;;20.33;17.33;;;;;-149.00;100.00;66333.84;5099382;27;45399;-77
2021/07/17 01:00:39;;;;;;;;;8.33;8.33;;;;;-149.00;100.00;66333.84;5099728;27;45198;-76
2021/07/17 01:03:07;;;;;;;;;17.00;16.00;;;;;-149.00;100.00;66333.84;5099490;27;45463;-77
2021/07/17 01:05:33;;;;;;;;;18.33;17.67;;;;;-149.00;100.00;66333.84;5081054;27;46323;-76
2021/07/17 01:07:59;;;;;;;;;17.67;16.00;;;;;-149.00;100.00;66333.84;5097994;27;45704;-76
2021/07/17 01:10:24;;;;;;;;;15.67;14.33;;;;;-149.00;100.00;66333.84;5099745;27;45280;-77
2021/07/17 01:12:51;;;;;;;;;17.33;17.33;;;;;-149.00;100.00;66333.84;5081059;27;46096;-76
2021/07/17 01:15:17;;;;;;;;;20.33;17.67;;;;;-149.00;100.00;66333.84;5099340;27;45304;-76
2021/07/17 01:17:43;;;;;;;;;20.67;19.67;;;;;-149.00;100.00;66333.84;5099514;27;45237;-76
2021/07/17 01:20:15;;;;;;;;;20.00;18.67;;;;;-149.00;100.00;66333.84;5099462;27;45169;-76
2021/07/17 01:22:42;;;;;;;;;20.33;17.33;;;;;-149.00;100.00;66333.84;5099124;27;45508;-76
2021/07/17 01:25:11;;;;;;;;;20.67;20.67;;;;;-149.00;100.00;66333.84;5099123;27;45308;-77
2021/07/17 01:27:37;;;;;;;;;17.00;17.00;;;;;-149.00;100.00;66333.84;5099563;27;45517;-77
2021/07/17 01:30:06;;;;;;;;;17.67;16.00;;;;;-149.00;100.00;66333.84;5102443;27;45268;-76
2021/07/17 01:32:31;;;;;;;;;14.00;13.67;;;;;-149.00;100.00;66333.84;5102777;27;45224;-76
2021/07/17 01:34:57;;;;;;;;;19.67;19.67;;;;;-149.00;100.00;66333.84;5102355;27;46082;-76
2021/07/17 01:37:22;;;;;;;;;18.33;18.33;;;;;-149.00;100.00;66333.84;5102854;27;45151;-77
2021/07/17 01:39:47;;;;;;;;;21.67;18.00;;;;;-149.00;100.00;66333.84;5102964;27;45270;-76
2021/07/17 01:42:13;;;;;;;;;15.00;14.00;;;;;-149.00;100.00;66333.84;5102647;27;45203;-76
2021/07/17 01:44:45;;;;;;;;;17.33;17.00;;;;;-149.00;100.00;66333.84;5102336;27;45260;-76
2021/07/17 01:47:14;;;;;;;;;16.33;15.67;;;;;-149.00;100.00;66333.84;5102553;27;45358;-77
2021/07/17 01:49:41;;;;;;;;;21.67;19.67;;;;;-149.00;100.00;66333.84;5084179;27;45254;-77
2021/07/17 01:52:07;;;;;;;;;19.33;18.00;;;;;-149.00;100.00;66333.84;5083900;27;46158;-76
2021/07/17 01:54:37;;;;;;;;;16.33;16.00;;;;;-149.00;100.00;66333.84;5102318;27;46210;-76
2021/07/17 01:57:05;;;;;;;;;19.33;17.00;;;;;-149.00;100.00;66333.84;5084119;27;45251;-77
2021/07/17 01:59:35;;;;;;;;;20.00;18.00;;;;;-149.00;100.00;66333.84;5083993;27;45327;-77
2021/07/17 02:02:00;;;;;;;;;20.33;19.33;;;;;-149.00;100.00;66333.84;5102269;27;46058;-77
2021/07/17 02:04:26;;;;;;;;;18.67;18.67;;;;;-149.00;100.00;66333.84;5102130;27;45306;-76
2021/07/17 02:06:51;;;;;;;;;19.67;18.33;;;;;-149.00;100.00;66333.84;5083804;27;45307;-76
2021/07/17 02:09:16;;;;;;;;;19.33;19.33;;;;;-149.00;100.00;66333.84;5102458;27;45304;-76
2021/07/17 02:11:42;;;;;;;;;19.33;19.00;;;;;-149.00;100.00;66333.84;5102239;27;45200;-76
2021/07/17 02:14:07;;;;;;;;;17.00;17.00;;;;;-149.00;100.00;66333.84;5101747;27;46511;-76
2021/07/17 02:16:32;;;;;;;;;20.33;18.33;;;;;-149.00;100.00;66333.84;5102088;27;45137;-77
2021/07/17 02:19:06;;;;;;;;;19.00;18.00;;;;;-149.00;100.00;66333.84;5083660;27;45205;-76
2021/07/17 02:21:32;;;;;;;;;22.00;21.00;;;;;-149.00;100.00;66333.84;5101916;27;45626;-76
2021/07/17 02:23:57;;;;;;;;;22.00;21.00;;;;;-149.00;100.00;66333.84;5101756;27;45228;-76
2021/07/17 02:26:22;;;;;;;;;22.33;20.67;;;;;-149.00;100.00;66333.84;5101864;27;45227;-76
2021/07/17 02:28:48;;;;;;;;;18.33;16.67;;;;;-149.00;100.00;66333.84;5101952;27;45214;-77
2021/07/17 02:31:13;;;;;;;;;19.00;17.67;;;;;-149.00;100.00;66333.84;5083428;27;45833;-76
2021/07/17 02:33:38;;;;;;;;;18.67;18.00;;;;;-149.00;100.00;66333.84;5101810;27;45252;-76
2021/07/17 02:36:04;;;;;;;;;19.00;17.67;;;;;-149.00;100.00;66333.84;5101770;27;45239;-76
2021/07/17 02:38:29;;;;;;;;;20.33;19.33;;;;;-149.00;100.00;66333.84;5101719;27;45345;-76
2021/07/17 02:40:55;;;;;;;;;20.33;20.00;;;;;-149.00;100.00;66333.84;5101670;27;45451;-77
2021/07/17 02:43:20;;;;;;;;;22.00;18.00;;;;;-149.00;100.00;66333.84;5082963;27;47142;-76
2021/07/17 02:45:45;;;;;;;;;21.67;21.00;;;;;-149.00;100.00;66333.84;5101738;27;45256;-76
2021/07/17 02:48:11;;;;;;;;;23.33;21.67;;;;;-149.00;100.00;66333.84;5101781;27;45218;-76
2021/07/17 02:50:36;;;;;;;;;21.00;17.67;;;;;-149.00;100.00;66333.84;5101586;27;45490;-76
2021/07/17 02:53:01;;;;;;;;;18.67;18.67;;;;;-149.00;100.00;66333.84;5101364;27;46121;-76
2021/07/17 02:55:27;;;;;;;;;18.33;16.67;;;;;-149.00;100.00;66333.84;5101527;27;45492;-76
2021/07/17 02:57:52;;;;;;;;;21.00;19.00;;;;;-149.00;100.00;66333.84;5101714;27;45338;-76
2021/07/17 03:00:18;;;;;;;;;23.33;22.00;;;;;-149.00;100.00;66333.84;5099767;27;46552;-76
2021/07/17 03:02:43;;;;;;;;;21.00;20.67;;;;;-149.00;100.00;66333.84;5101455;27;45350;-76
2021/07/17 03:05:09;;;;;;;;;24.33;22.33;;;;;-149.00;100.00;66333.84;5101314;27;45240;-76
2021/07/17 03:07:35;;;;;;;;;19.67;18.67;;;;;-149.00;100.00;66333.84;5101374;27;45335;-76
2021/07/17 03:10:00;;;;;;;;;21.33;19.33;;;;;-149.00;100.00;66333.84;5082857;27;46061;-76
2021/07/17 03:12:26;;;;;;;;;22.00;19.67;;;;;-149.00;100.00;66333.84;5101199;27;46221;-76
2021/07/17 03:14:52;;;;;;;;;21.00;19.00;;;;;-149.00;100.00;66333.84;5082644;27;46516;-76
2021/07/17 03:17:17;;;;;;;;;19.00;16.00;;;;;-149.00;100.00;66333.84;5101425;27;45294;-76
2021/07/17 03:19:43;;;;;;;;;25.00;21.00;;;;;-149.00;100.00;66333.84;5101131;27;45498;-76
2021/07/17 03:22:09;;;;;;;;;19.00;18.00;;;;;-149.00;100.00;66333.84;5100661;27;47190;-76
2021/07/17 03:24:34;;;;;;;;;19.00;16.67;;;;;-149.00;100.00;66333.84;5082483;27;46408;-76
2021/07/17 03:26:59;;;;;;;;;22.33;19.33;;;;;-149.00;100.00;66333.84;5101089;27;45220;-77
2021/07/17 03:29:25;;;;;;;;;24.33;22.00;;;;;-149.00;100.00;66333.84;5099671;27;45483;-76
2021/07/17 03:31:50;;;;;;;;;23.33;21.33;;;;;-149.00;100.00;66333.84;5093648;27;45250;-76
2021/07/17 03:34:16;;;;;;;;;22.00;21.33;;;;;-149.00;100.00;66333.84;5100702;27;45230;-76
2021/07/17 03:36:42;;;;;;;;;19.00;17.00;;;;;-149.00;100.00;66333.84;5100944;27;45266;-76
2021/07/17 03:39:08;;;;;;;;;24.67;22.00;;;;;-149.00;100.00;66333.84;5082452;27;46048;-76
2021/07/17 03:41:33;;;;;;;;;21.67;20.00;;;;;-149.00;100.00;66333.84;5100707;27;46462;-76
2021/07/17 03:43:59;;;;;;;;;19.33;19.33;;;;;-149.00;100.00;66333.84;5100528;27;45339;-76
2021/07/17 03:46:24;;;;;;;;;20.33;18.33;;;;;-149.00;100.00;66333.84;5100924;27;45333;-76
2021/07/17 03:48:49;;;;;;;;;26.00;23.00;;;;;-149.00;100.00;66333.84;5100532;27;45326;-76
2021/07/17 03:51:15;;;;;;;;;23.33;22.67;;;;;-149.00;100.00;66333.84;5099916;27;45295;-77
2021/07/17 03:53:40;;;;;;;;;24.67;22.33;;;;;-149.00;100.00;66333.84;5100575;27;45316;-76
2021/07/17 03:56:07;;;;;;;;;18.00;16.33;;;;;-149.00;100.00;66333.84;5100727;27;45295;-77
2021/07/17 03:58:32;;;;;;;;;20.67;19.67;;;;;-149.00;100.00;66333.84;5081921;27;47343;-76
2021/07/17 04:00:58;;;;;;;;;24.00;22.00;;;;;-149.00;100.00;66333.84;5100314;27;45284;-76
2021/07/17 04:03:24;;;;;;;;;20.67;19.00;;;;;-149.00;100.00;66333.84;5082182;27;46145;-76
2021/07/17 04:05:50;;;;;;;;;20.33;19.67;;;;;-149.00;100.00;66333.84;5100490;27;45342;-77
2021/07/17 04:08:15;;;;;;;;;19.67;18.67;;;;;-149.00;100.00;66333.84;5100133;27;45539;-76
2021/07/17 04:10:40;;;;;;;;;25.67;22.00;;;;;-149.00;100.00;66333.84;5100306;27;46174;-77
2021/07/17 04:13:06;;;;;;;;;19.00;16.00;;;;;-149.00;100.00;66333.84;5100153;27;45275;-76
2021/07/17 04:15:31;;;;;;;;;26.00;20.33;;;;;-149.00;100.00;66333.84;5100515;27;45417;-76
2021/07/17 04:17:57;;;;;;;;;23.67;22.33;;;;;-149.00;100.00;66333.84;5100136;27;46518;-76
2021/07/17 04:20:23;;;;;;;;;20.67;20.67;;;;;-149.00;100.00;66333.84;5081784;27;47253;-77
2021/07/17 04:22:48;;;;;;;;;22.33;20.33;;;;;-149.00;100.00;66333.84;5099963;27;45386;-76
2021/07/17 04:25:14;;;;;;;;;26.00;25.33;;;;;-149.00;100.00;66333.84;5100185;27;45339;-76
2021/07/17 04:27:39;;;;;;;;;22.33;18.33;;;;;-149.00;100.00;66333.84;5099956;27;45457;-77
2021/07/17 04:30:09;;;;;;;;;26.67;21.00;;;;;-149.00;100.00;66333.84;5077887;28;47049;-76
2021/07/17 04:32:36;;;;;;;;;18.33;17.00;;;;;-149.00;100.00;66333.84;5099012;27;45235;-76
2021/07/17 04:35:01;;;;;;;;;23.33;20.33;;;;;-149.00;100.00;66333.84;5100023;27;45182;-76
2021/07/17 04:37:27;;;;;;;;;23.33;21.67;;;;;-149.00;100.00;66333.84;5099825;27;45280;-76
2021/07/17 04:39:53;;;;;;;;;22.33;20.67;;;;;-149.00;100.00;66333.84;5099864;27;46264;-77
2021/07/17 04:42:18;;;;;;;;;24.00;21.33;;;;;-149.00;100.00;66333.84;5099820;27;45324;-77
2021/07/17 04:44:43;;;;;;;;;23.67;19.67;;;;;-149.00;100.00;66333.84;5099765;27;45337;-77
2021/07/17 04:47:09;;;;;;;;;24.67;19.67;;;;;-149.00;100.00;66333.84;5100069;27;45305;-77
2021/07/17 04:49:34;;;;;;;;;20.00;19.00;;;;;-149.00;100.00;66333.84;5099849;27;45319;-76
2021/07/17 04:52:00;;;;;;;;;26.00;22.00;;;;;-149.00;100.00;66333.84;5099504;27;45328;-76
2021/07/17 04:54:26;;;;;;;;;25.00;20.00;;;;;-149.00;100.00;66333.84;5099913;27;45439;-77
2021/07/17 04:56:52;;;;;;;;;23.67;21.67;;;;;-149.00;100.00;66333.84;5099811;27;45177;-76
2021/07/17 04:59:17;;;;;;;;;21.00;21.00;;;;;-149.00;100.00;66333.84;5099471;27;45248;-77
2021/07/17 05:01:43;;;;;;;;;25.00;22.00;;;;;-149.00;100.00;66333.84;5100347;27;45257;-77
2021/07/17 05:04:09;;;;;;;;;26.33;26.00;;;;;-149.00;100.00;66333.84;5084875;27;45286;-77
2021/07/17 05:06:34;;;;;;;;;21.67;17.00;;;;;-149.00;100.00;66333.84;5103155;27;45421;-77
2021/07/17 05:09:00;;;;;;;;;21.33;21.33;;;;;-149.00;100.00;66333.84;5103078;27;45966;-77
2021/07/17 05:11:25;;;;;;;;;23.67;21.33;;;;;-149.00;100.00;66333.84;5103230;27;45253;-76
2021/07/17 05:13:51;;;;;;;;;19.67;19.67;;;;;-149.00;100.00;66333.84;5101732;27;45302;-77
2021/07/17 05:16:16;;;;;;;;;24.67;23.00;;;;;-149.00;100.00;66333.84;5103076;27;45564;-76
2021/07/17 05:18:41;;;;;;;;;26.33;22.00;;;;;-149.00;100.00;66333.84;5103117;27;46108;-77
2021/07/17 05:21:07;;;;;;;;;24.67;21.00;;;;;-149.00;100.00;66333.84;5102915;27;45252;-77
2021/07/17 05:23:32;;;;;;;;;23.67;22.00;;;;;-149.00;100.00;66333.84;5102766;27;45516;-77
2021/07/17 05:25:57;;;;;;;;;30.67;25.33;;;;;-149.00;100.00;66333.84;5102948;27;45493;-77
2021/07/17 05:28:23;;;;;;;;;24.33;22.00;;;;;-149.00;100.00;66333.84;5102590;27;46323;-77
2021/07/17 05:30:49;;;;;;;;;28.67;25.00;;;;;-149.00;100.00;66333.84;5102682;27;45308;-77
2021/07/17 05:33:15;;;;;;;;;23.33;20.67;;;;;-149.00;100.00;66333.84;5084401;27;45277;-77
2021/07/17 05:35:41;;;;;;;;;25.33;22.00;;;;;-149.00;100.00;66333.84;5102588;27;46258;-76
2021/07/17 05:38:06;;;;;;;;;24.67;22.33;;;;;-149.00;100.00;66333.84;5084158;27;48149;-77
2021/07/17 05:40:32;;;;;;;;;30.67;23.33;;;;;-149.00;100.00;66333.84;5102622;27;45182;-77
2021/07/17 05:42:57;;;;;;;;;29.67;27.33;;;;;-149.00;100.00;66333.84;5102704;27;45285;-77
2021/07/17 05:45:23;;;;;;;;;22.00;20.67;;;;;-149.00;100.00;66333.84;5102569;27;45320;-77
2021/07/17 05:47:48;;;;;;;;;22.00;21.67;;;;;-149.00;100.00;66333.84;5102609;27;45869;-77
2021/07/17 05:50:14;;;;;;;;;24.67;24.00;;;;;-149.00;100.00;66333.84;5102530;27;45302;-76
2021/07/17 05:52:40;;;;;;;;;22.67;21.67;;;;;-149.00;100.00;66333.84;5102581;27;45358;-76
2021/07/17 05:55:06;;;;;;;;;27.67;25.33;;;;;-149.00;100.00;66333.84;5102305;27;45213;-76
2021/07/17 05:57:34;;;;;;;;;28.33;28.33;;;;;-149.00;100.00;66333.84;5102528;27;46090;-77
2021/07/17 06:00:00;;;;;;;;;26.67;25.00;;;;;-149.00;100.00;66333.84;5102026;27;45383;-76
2021/07/17 06:02:26;;;;;;;;;24.67;22.33;;;;;-149.00;100.00;66333.84;5102446;27;45348;-77
2021/07/17 06:04:53;;;;;;;;;28.00;25.33;;;;;-149.00;100.00;66333.84;5102298;27;45470;-76
2021/07/17 06:07:18;;;;;;;;;30.33;28.00;;;;;-149.00;100.00;66333.84;5101187;27;46212;-77
2021/07/17 06:09:44;;;;;;;;;26.33;25.00;;;;;-149.00;100.00;66333.84;5101833;27;45386;-76
2021/07/17 06:12:10;;;;;;;;;30.67;29.00;;;;;-149.00;100.00;66333.84;5102195;27;45221;-77
2021/07/17 06:14:36;;;;;;;;;26.00;25.00;;;;;-149.00;100.00;66333.84;5101813;27;45322;-76
2021/07/17 06:17:02;;;;;;;;;27.00;25.33;;;;;-149.00;100.00;66333.84;5102068;27;46582;-77
2021/07/17 06:19:27;;;;;;;;;22.00;18.67;;;;;-149.00;100.00;66333.84;5101907;27;45360;-77
2021/07/17 06:21:53;;;;;;;;;33.67;31.00;;;;;-149.00;100.00;66333.84;5101982;27;45362;-77
2021/07/17 06:24:18;;;;;;;;;27.67;27.67;;;;;-149.00;100.00;66333.84;5101922;27;45343;-76
2021/07/17 06:26:43;;;;;;;;;31.67;29.00;;;;;-149.00;100.00;66333.84;5101829;27;45304;-77
2021/07/17 06:29:09;;;;;;;;;34.00;29.33;;;;;-149.00;100.00;66333.84;5101607;27;45474;-76
2021/07/17 06:31:34;;;;;;;;;25.33;24.00;;;;;-149.00;100.00;66333.84;5101800;27;45574;-76
2021/07/17 06:34:00;;;;;;;;;31.67;30.33;;;;;-149.00;100.00;66333.84;5101627;27;45322;-76
2021/07/17 06:36:25;;;;;;;;;29.33;29.00;;;;;-149.00;100.00;66333.84;5101612;27;46433;-76
2021/07/17 06:38:51;;;;;;;;;30.67;28.33;;;;;-149.00;100.00;66333.84;5101736;27;45303;-76
2021/07/17 06:41:16;;;;;;;;;32.33;30.67;;;;;-149.00;100.00;66333.84;5101862;27;45223;-76
2021/07/17 06:43:41;;;;;;;;;28.33;25.00;;;;;-149.00;100.00;66333.84;5101384;27;45299;-76
2021/07/17 06:46:07;;;;;;;;;37.33;33.67;;;;;-149.00;100.00;66333.84;5101586;27;45285;-77
2021/07/17 06:48:32;;;;;;;;;31.67;28.00;;;;;-149.00;100.00;66333.84;5101607;27;45182;-77
2021/07/17 06:50:58;;;;;;;;;34.67;30.33;;;;;-149.00;100.00;66333.84;5083176;27;45324;-77
2021/07/17 06:53:23;;;;;;;;;34.00;29.67;;;;;-149.00;100.00;66333.84;5101244;27;45300;-76
2021/07/17 06:55:49;;;;;;;;;33.67;28.67;;;;;-149.00;100.00;66333.84;5101455;27;45292;-76
2021/07/17 06:58:14;;;;;;;;;31.00;30.00;;;;;-149.00;100.00;66333.84;5101369;27;45229;-77
2021/07/17 07:00:39;;;;;;;;;27.67;25.00;;;;;-149.00;100.00;66333.84;5083096;27;45195;-77
2021/07/17 07:03:05;;;;;;;;;30.67;28.33;;;;;-149.00;100.00;66333.84;5101377;27;45209;-77
2021/07/17 07:05:30;;;;;;;;;32.67;30.00;;;;;-149.00;100.00;66333.84;5100979;27;47046;-76
2021/07/17 07:07:56;;;;;;;;;30.33;25.00;;;;;-149.00;100.00;66333.84;5101127;27;45257;-77
2021/07/17 07:10:21;;;;;;;;;25.33;24.67;;;;;-149.00;100.00;66333.84;5101595;27;45443;-76
2021/07/17 07:12:47;;;;;;;;;35.33;30.33;;;;;-149.00;100.00;66333.84;5100763;27;45343;-76
2021/07/17 07:15:13;;;;;;;;;29.67;27.67;;;;;-149.00;100.00;66333.84;5100847;27;45373;-77
2021/07/17 07:17:39;;;;;;;;;33.00;30.00;;;;;-149.00;100.00;66333.84;5101227;27;45291;-77
2021/07/17 07:20:10;;;;;;;;;30.67;29.67;;;;;-149.00;100.00;66333.84;5082895;27;45380;-77
2021/07/17 07:22:37;;;;;;;;;32.67;28.67;;;;;-149.00;100.00;66333.84;5082354;27;45578;-77
2021/07/17 07:25:07;;;;;;;;;29.67;28.33;;;;;-149.00;100.00;66333.84;5099806;27;45280;-77
2021/07/17 07:27:34;;;;;;;;;37.33;32.33;;;;;-149.00;100.00;66333.84;5082174;27;45359;-77
2021/07/17 07:29:59;;;;;;;;;30.33;29.00;;;;;-149.00;100.00;66333.84;5100720;27;45148;-77
2021/07/17 07:32:24;;;;;;;;;29.00;26.00;;;;;-149.00;100.00;66333.84;5100915;27;45202;-77
2021/07/17 07:34:50;;;;;;;;;32.33;30.67;;;;;-149.00;100.00;66333.84;5100625;27;45283;-76
2021/07/17 07:37:15;;;;;;;;;33.67;29.33;;;;;-149.00;100.00;66333.84;5100665;27;45234;-77
2021/07/17 07:39:41;;;;;;;;;30.67;27.67;;;;;-149.00;100.00;66333.84;5101028;27;45616;-77
2021/07/17 07:42:06;;;;;;;;;33.67;29.00;;;;;-149.00;100.00;66333.84;5100821;27;45143;-77
2021/07/17 07:44:32;;;;;;;;;30.33;28.33;;;;;-149.00;100.00;66333.84;5099958;27;46229;-78
2021/07/17 07:46:58;;;;;;;;;37.33;31.67;;;;;-149.00;100.00;66333.84;5100886;27;45371;-76
2021/07/17 07:49:24;;;;;;;;;31.67;30.33;;;;;-149.00;100.00;66333.84;5100835;27;45316;-76
2021/07/17 07:51:49;;;;;;;;;31.33;28.00;;;;;-149.00;100.00;66333.84;5082131;27;46124;-76
2021/07/17 07:54:14;;;;;;;;;32.33;28.33;;;;;-149.00;100.00;66333.84;5100575;27;46029;-76
2021/07/17 07:56:40;;;;;;;;;30.00;27.00;;;;;-149.00;100.00;66333.84;5100662;27;45343;-76
2021/07/17 07:59:05;;;;;;;;;29.00;27.00;;;;;-149.00;100.00;66333.84;5100515;27;45368;-76
2021/07/17 08:01:31;;;;;;;;;31.33;27.67;;;;;-149.00;100.00;66333.84;5100010;27;45483;-76
2021/07/17 08:03:56;;;;;;;;;30.00;27.67;;;;;-149.00;100.00;66333.84;5099535;27;46389;-76
2021/07/17 08:06:22;;;;;;;;;34.00;30.33;;;;;-149.00;100.00;66333.84;5081144;27;45274;-76
2021/07/17 08:08:47;;;;;;;;;32.67;30.33;;;;;-149.00;100.00;66333.84;5099743;27;45195;-77
2021/07/17 08:11:13;;;;;;;;;33.00;29.33;;;;;-149.00;100.00;66333.84;5100338;27;45178;-80
2021/07/17 08:13:38;;;;;;;;;29.67;28.33;;;;;-149.00;100.00;66333.84;5099361;27;45264;-76
2021/07/17 08:16:04;;;;;;;;;32.67;30.00;;;;;-149.00;100.00;66333.84;5100320;27;45219;-77
2021/07/17 08:18:30;;;;;;;;;31.00;28.67;;;;;-149.00;100.00;66333.84;5100554;27;45287;-77
2021/07/17 08:20:56;;;;;;;;;33.67;30.00;;;;;-149.00;100.00;66333.84;5081767;27;47054;-77
2021/07/17 08:23:21;;;;;;;;;32.00;28.67;;;;;-149.00;100.00;66333.84;5099835;27;46467;-77
2021/07/17 08:25:47;;;;;;;;;30.33;26.67;;;;;-149.00;100.00;66333.84;5099736;27;45324;-77
2021/07/17 08:28:12;;;;;;;;;29.33;26.67;;;;;-149.00;100.00;66333.84;5099802;27;45367;-79
2021/07/17 08:30:38;;;;;;;;;30.33;29.00;;;;;-149.00;100.00;66333.84;5099486;27;45330;-76
2021/07/17 08:33:04;;;;;;;;;27.67;27.33;;;;;-149.00;100.00;66333.84;5100039;27;45425;-77
2021/07/17 08:35:30;;;;;;;;;25.00;24.00;;;;;-149.00;100.00;66333.84;5100082;27;45329;-76
2021/07/17 08:37:56;;;;;;;;;29.67;27.67;;;;;-149.00;100.00;66333.84;5103693;27;45381;-76
2021/07/17 08:40:22;;;;;;;;;33.00;31.00;;;;;-149.00;100.00;66333.84;5103419;27;45465;-76
2021/07/17 08:42:50;;;;;;;;;32.67;29.33;;;;;-149.00;100.00;66333.84;5103431;27;46433;-76
2021/07/17 08:45:17;;;;;;;;;28.00;26.00;;;;;-149.00;100.00;66333.84;5103419;27;45346;-77
2021/07/17 08:47:44;;;;;;;;;27.67;27.67;;;;;-149.00;100.00;66333.84;5103275;27;45272;-78
2021/07/17 08:50:16;;;;;;;;;29.33;26.67;;;;;-149.00;100.00;66333.84;5103474;27;45825;-77
2021/07/17 08:52:42;;;;;;;;;28.67;26.67;;;;;-149.00;100.00;66333.84;5103224;27;45401;-76
2021/07/17 08:55:09;;;;;;;;;33.33;30.33;;;;;-149.00;100.00;66333.84;5103489;27;45458;-77
2021/07/17 08:57:36;;;;;;;;;29.00;29.00;;;;;-149.00;100.00;66333.84;5102465;27;45472;-78
2021/07/17 09:00:09;;;;;;;;;25.00;25.00;;;;;-149.00;100.00;66333.84;5084436;27;46034;-78
2021/07/17 09:02:44;;;;;;;;;28.00;27.00;;;;;-149.00;100.00;66333.84;5102807;27;46361;-78
2021/07/17 09:05:15;;;;;;;;;26.33;26.00;;;;;-149.00;100.00;66333.84;5103246;27;45330;-77
2021/07/17 09:07:41;;;;;;;;;25.00;24.67;;;;;-149.00;100.00;66333.84;5103284;27;45258;-77
2021/07/17 09:10:25;;;;;;;;;31.33;29.67;;;;;-149.00;100.00;66333.84;5103203;27;45213;-76
2021/07/17 09:13:10;;;;;;;;;27.00;27.00;;;;;-149.00;100.00;66333.84;5103016;27;45324;-77
2021/07/17 09:15:38;;;;;;;;;26.00;24.00;;;;;-149.00;100.00;66333.84;5084589;27;45697;-78
2021/07/17 09:18:06;;;;;;;;;28.33;27.00;;;;;-149.00;100.00;66333.84;5103165;27;45315;-77
2021/07/17 09:20:31;;;;;;;;;26.33;26.33;;;;;-149.00;100.00;66333.84;5102908;27;45366;-78
2021/07/17 09:23:02;;;;;;;;;33.33;29.00;;;;;-149.00;100.00;66333.84;5101535;27;45338;-78
2021/07/17 09:25:41;;;;;;;;;31.00;29.00;;;;;-149.00;100.00;66333.84;5104807;27;45476;-78
2021/07/17 09:28:21;;;;;;;;;31.00;26.67;;;;;-149.00;100.00;66333.84;5115961;27;45341;-78
2021/07/17 09:30:48;;;;;;;;;27.33;26.00;;;;;-149.00;100.00;66333.84;5075421;27;46113;-77
2021/07/17 09:33:14;;;;;;;;;25.67;24.00;;;;;-149.00;100.00;66333.84;5084383;27;45347;-77
2021/07/17 09:35:47;;;;;;;;;28.00;27.00;;;;;-149.00;100.00;66333.84;5102606;27;45352;-78
2021/07/17 09:38:13;;;;;;;;;28.67;27.67;;;;;-149.00;100.00;66333.84;5102577;27;45436;-78
2021/07/17 09:40:51;;;;;;;;;24.00;23.00;;;;;-149.00;100.00;66333.84;5084045;27;46415;-77
2021/07/17 09:43:38;;;;;;;;;31.67;28.67;;;;;-149.00;100.00;66333.84;5102005;27;46381;-79
2021/07/17 09:46:20;;;;;;;;;28.67;27.00;;;;;-149.00;100.00;66333.84;5082235;27;45337;-78
2021/07/17 09:48:48;;;;;;;;;24.00;22.67;;;;;-149.00;100.00;66333.84;5100348;27;45408;-77
2021/07/17 09:51:20;;;;;;;;;25.33;24.00;;;;;-149.00;100.00;66333.84;5122471;27;45378;-77
2021/07/17 09:53:51;;;;;;;;;21.00;21.00;;;;;-149.00;100.00;66333.84;5099212;27;46094;-78
2021/07/17 09:56:19;;;;;;;;;32.00;25.67;;;;;-149.00;100.00;66333.84;5081106;27;45271;-80
2021/07/17 09:58:45;;;;;;;;;23.67;23.33;;;;;-149.00;100.00;66333.84;5099248;27;45259;-78
2021/07/17 10:01:11;;;;;;;;;23.67;23.33;;;;;-149.00;100.00;66333.84;5100792;27;45399;-78
2021/07/17 10:03:37;;;;;;;;;27.67;23.67;;;;;-149.00;100.00;66333.84;5102032;27;46439;-77
2021/07/17 10:06:02;;;;;;;;;26.33;23.00;;;;;-149.00;100.00;66333.84;5102310;27;45450;-77
2021/07/17 10:08:34;;;;;;;;;25.67;24.67;;;;;-149.00;100.00;66333.84;5104940;27;45162;-77
2021/07/17 10:11:01;;;;;;;;;27.67;26.00;;;;;-149.00;100.00;66333.84;5102412;27;46264;-77
2021/07/17 10:13:26;;;;;;;;;26.00;25.00;;;;;-149.00;100.00;66333.84;5101748;27;46165;-76
2021/07/17 10:15:52;;;;;;;;;21.00;20.67;;;;;-149.00;100.00;66333.84;5083779;27;45773;-77
2021/07/17 10:18:24;;;;;;;;;26.00;24.67;;;;;-149.00;100.00;66333.84;5102344;27;45277;-76
2021/07/17 10:20:54;;;;;;;;;25.33;23.00;;;;;-149.00;100.00;66333.84;5102238;27;45367;-76
2021/07/17 10:23:20;;;;;;;;;27.00;25.67;;;;;-149.00;100.00;66333.84;5065692;27;46167;-75
2021/07/17 10:25:46;;;;;;;;;21.33;19.00;;;;;-149.00;100.00;66333.84;5102014;27;45721;-76
2021/07/17 10:28:12;;;;;;;;;23.67;21.67;;;;;-149.00;100.00;66333.84;5102288;27;45271;-77
2021/07/17 10:30:38;;;;;;;;;27.33;25.33;;;;;-149.00;100.00;66333.84;5102148;27;45394;-77
2021/07/17 10:33:04;;;;;;;;;30.00;26.00;;;;;-149.00;100.00;66333.84;5103260;27;45274;-77
2021/07/17 10:35:29;;;;;;;;;21.67;20.00;;;;;-149.00;100.00;66333.84;5101613;27;45406;-78
2021/07/17 10:37:57;;;;;;;;;27.67;25.33;;;;;-149.00;100.00;66333.84;5101899;27;45288;-76
2021/07/17 10:40:24;;;;;;;;;24.67;23.67;;;;;-149.00;100.00;66333.84;5101208;27;45294;-77
2021/07/17 10:42:54;;;;;;;;;26.33;24.00;;;;;-149.00;100.00;66333.84;5102375;27;46292;-77
2021/07/17 10:45:43;;;;;;;;;24.00;23.67;;;;;-149.00;100.00;66333.84;5101798;27;45470;-78
2021/07/17 10:48:30;;;;;;;;;24.67;23.67;;;;;-149.00;100.00;66333.84;5101401;27;45281;-78
2021/07/17 10:50:59;;;;;;;;;29.67;29.00;;;;;-149.00;100.00;66333.84;5101293;27;45237;-77
2021/07/17 10:53:45;;;;;;;;;29.33;27.67;;;;;-149.00;100.00;66333.84;5100448;27;45321;-77